Time;durP1;ratioP1;P1;durP2;ratioP2;P2;SDS_P1;SDS_P2;PMS_P1;PMS_P2;Temp;Humidity;BMP_temperature;BMP_pressure;BME280_temperature;BME280_humidity;BME280_pressure;Samples;Min_cycle;Max_cycle;Signal;HPM_P1;HPM_P2
2024/02/25 00:00:54;;;;;;;;;;;;;;;10.86;50.97;99933.72;4976020;27;98670;-73
2024/02/25 00:03:21;;;;;;;;;;;;;;;10.85;51.19;99929.41;4966698;27;116622;-68
2024/02/25 00:05:47;;;;;;;;;;;;;;;10.84;50.77;99927.78;4967096;27;98227;-74
2024/02/25 00:08:13;;;;;;;;;;;;;;;10.84;51.25;99933.19;4967612;27;113787;-73
2024/02/25 00:10:39;;;;;;;;;;;;;;;10.83;51.10;99931.56;4966312;27;98096;-73
2024/02/25 00:13:06;;;;;;;;;;;;;;;10.81;51.09;99931.06;4967006;27;98208;-73
2024/02/25 00:15:32;;;;;;;;;;;;;;;10.80;50.76;99940.22;4967463;27;98118;-68
2024/02/25 00:17:59;;;;;;;;;;;;;;;10.80;51.07;99942.91;4965736;27;100435;-68
2024/02/25 00:20:25;;;;;;;;;;;;;;;10.79;51.04;99952.09;4963917;27;98866;-68
2024/02/25 00:22:51;;;;;;;;;;;;;;;10.79;51.00;99950.22;4961644;27;98252;-73
2024/02/25 00:25:17;;;;;;;;;;;;;;;10.79;50.91;99960.19;4968159;27;98263;-74
2024/02/25 00:27:43;;;;;;;;;;;;;;;10.79;51.34;99963.69;4963742;27;122240;-68
2024/02/25 00:30:11;;;;;;;;;;;;;;;10.80;50.89;99956.41;4968184;27;129388;-68
2024/02/25 00:32:37;;;;;;;;;;;;;;;10.79;51.15;99952.91;4969803;27;98205;-68
2024/02/25 00:35:03;;;;;;;;;;;;;;;10.79;50.91;99950.22;4967017;27;98242;-72
2024/02/25 00:37:29;;;;;;;;;;;;;;;10.78;50.90;99951.28;4986329;27;104056;-72
2024/02/25 00:39:55;;;;;;;;;;;;;;;10.78;50.99;99951.28;4956054;27;101742;-69
2024/02/25 00:42:22;;;;;;;;;;;;;;;10.78;51.24;99939.72;4975919;27;102813;-68
2024/02/25 00:44:49;;;;;;;;;;;;;;;10.78;51.21;99943.22;4983814;27;98457;-68
2024/02/25 00:47:15;;;;;;;;;;;;;;;10.77;51.02;99936.22;4970360;27;100218;-68
2024/02/25 00:49:44;;;;;;;;;;;;;;;10.77;50.95;99938.91;4979317;27;97822;-67
2024/02/25 00:52:11;;;;;;;;;;;;;;;10.77;50.86;99935.41;4967262;27;98298;-68
2024/02/25 00:54:37;;;;;;;;;;;;;;;10.76;50.88;99941.88;4969630;27;110847;-68
2024/02/25 00:57:04;;;;;;;;;;;;;;;10.77;50.91;99938.09;4963329;27;99480;-69
2024/02/25 00:59:30;;;;;;;;;;;;;;;10.75;50.96;99932.19;4969328;27;111979;-73
2024/02/25 01:01:56;;;;;;;;;;;;;;;10.74;51.14;99936.78;4979409;27;116237;-68
2024/02/25 01:04:22;;;;;;;;;;;;;;;10.74;51.15;99935.97;4950992;27;98226;-72
2024/02/25 01:06:48;;;;;;;;;;;;;;;10.73;50.78;99935.16;4983489;27;98196;-72
2024/02/25 01:09:14;;;;;;;;;;;;;;;10.72;51.03;99930.84;4967706;27;98754;-72
2024/02/25 01:11:40;;;;;;;;;;;;;;;10.70;51.10;99933.03;4964937;27;99303;-72
2024/02/25 01:14:06;;;;;;;;;;;;;;;10.70;50.92;99930.34;4991822;27;98275;-72
2024/02/25 01:16:32;;;;;;;;;;;;;;;10.69;51.29;99920.66;4979867;27;130284;-68
2024/02/25 01:18:58;;;;;;;;;;;;;;;10.69;50.97;99919.81;4968324;27;98066;-68
2024/02/25 01:21:24;;;;;;;;;;;;;;;10.68;50.91;99921.72;4976200;27;98415;-67
2024/02/25 01:23:50;;;;;;;;;;;;;;;10.66;51.10;99915.00;4956063;27;97935;-68
2024/02/25 01:26:17;;;;;;;;;;;;;;;10.66;50.96;99918.50;4961149;27;98575;-68
2024/02/25 01:28:42;;;;;;;;;;;;;;;10.66;51.41;99917.69;4967432;27;102431;-72
2024/02/25 01:31:08;;;;;;;;;;;;;;;10.64;51.02;99912.56;4966900;27;115733;-68
2024/02/25 01:33:34;;;;;;;;;;;;;;;10.64;50.99;99911.78;4963468;27;99580;-72
2024/02/25 01:36:00;;;;;;;;;;;;;;;10.63;51.14;99905.59;4979247;27;118964;-68
2024/02/25 01:38:27;;;;;;;;;;;;;;;10.61;51.00;99905.06;4978573;27;98748;-67
2024/02/25 01:40:53;;;;;;;;;;;;;;;10.61;50.93;99901.53;4949144;27;97934;-74
2024/02/25 01:43:19;;;;;;;;;;;;;;;10.61;51.16;99896.16;4971765;27;99421;-72
2024/02/25 01:45:45;;;;;;;;;;;;;;;10.57;51.09;99896.75;4962941;27;98521;-72
2024/02/25 01:48:12;;;;;;;;;;;;;;;10.59;51.07;99901.03;4981294;27;98515;-72
2024/02/25 01:50:38;;;;;;;;;;;;;;;10.56;51.45;99902.38;4964449;27;109843;-68
2024/02/25 01:53:05;;;;;;;;;;;;;;;10.56;51.05;99905.09;4967418;27;98831;-68
2024/02/25 01:55:32;;;;;;;;;;;;;;;10.54;50.98;99907.28;4977556;27;98492;-73
2024/02/25 01:57:59;;;;;;;;;;;;;;;10.54;51.04;99912.66;4964868;27;98046;-72
2024/02/25 02:00:25;;;;;;;;;;;;;;;10.53;51.10;99917.25;4966522;27;98602;-68
2024/02/25 02:02:51;;;;;;;;;;;;;;;10.52;51.20;99910.22;4999118;27;98122;-73
2024/02/25 02:05:17;;;;;;;;;;;;;;;10.52;50.79;99910.22;4978847;27;118020;-67
2024/02/25 02:07:47;;;;;;;;;;;;;;;10.51;51.06;99910.53;4962703;27;99929;-72
2024/02/25 02:10:13;;;;;;;;;;;;;;;10.50;51.25;99907.03;4965502;27;98458;-72
2024/02/25 02:12:46;;;;;;;;;;;;;;;10.49;51.10;99909.97;4964875;27;98231;-67
2024/02/25 02:15:13;;;;;;;;;;;;;;;10.48;51.23;99906.50;4951009;27;98708;-67
2024/02/25 02:17:40;;;;;;;;;;;;;;;10.47;51.40;99904.88;4964745;27;98367;-72
2024/02/25 02:20:15;;;;;;;;;;;;;;;10.47;51.20;99909.47;4980697;27;98238;-72
2024/02/25 02:22:41;;;;;;;;;;;;;;;10.46;51.18;99910.56;4964096;27;98226;-68
2024/02/25 02:25:07;;;;;;;;;;;;;;;10.45;50.92;99900.84;4968562;27;98388;-72
2024/02/25 02:27:40;;;;;;;;;;;;;;;10.43;51.08;99903.03;4972851;27;100432;-67
2024/02/25 02:30:07;;;;;;;;;;;;;;;10.43;51.12;99897.66;4963589;27;98115;-72
2024/02/25 02:32:33;;;;;;;;;;;;;;;10.42;50.93;99898.75;4981450;27;99110;-68
2024/02/25 02:35:00;;;;;;;;;;;;;;;10.41;51.41;99891.72;4963650;27;100300;-68
2024/02/25 02:37:26;;;;;;;;;;;;;;;10.40;50.91;99896.31;4950251;27;111930;-72
2024/02/25 02:39:52;;;;;;;;;;;;;;;10.38;51.22;99893.09;4962503;27;98044;-67
2024/02/25 02:42:18;;;;;;;;;;;;;;;10.38;51.01;99897.69;4978691;27;98120;-72
2024/02/25 02:44:45;;;;;;;;;;;;;;;10.37;51.18;99896.84;4964343;27;98296;-72
2024/02/25 02:47:12;;;;;;;;;;;;;;;10.36;51.26;99900.63;4960350;27;98404;-68
2024/02/25 02:49:38;;;;;;;;;;;;;;;10.35;50.98;99890.97;4974985;27;100837;-67
2024/02/25 02:52:05;;;;;;;;;;;;;;;10.35;51.21;99890.97;4949081;27;98158;-72
2024/02/25 02:54:31;;;;;;;;;;;;;;;10.35;51.33;99890.16;4949633;27;98762;-68
2024/02/25 02:56:57;;;;;;;;;;;;;;;10.34;51.14;99892.06;4970845;27;98101;-67
2024/02/25 02:59:23;;;;;;;;;;;;;;;10.33;51.06;99893.09;4966224;27;98045;-72
2024/02/25 03:01:49;;;;;;;;;;;;;;;10.32;50.81;99891.50;4963740;27;98770;-68
2024/02/25 03:04:16;;;;;;;;;;;;;;;10.31;51.07;99895.28;4969185;27;99803;-72
2024/02/25 03:06:42;;;;;;;;;;;;;;;10.30;50.76;99891.81;4964869;27;98396;-72
2024/02/25 03:09:08;;;;;;;;;;;;;;;10.29;51.35;99898.25;4978674;27;98071;-72
2024/02/25 03:11:34;;;;;;;;;;;;;;;10.28;50.76;99898.53;4965215;27;99534;-68
2024/02/25 03:14:01;;;;;;;;;;;;;;;10.28;51.08;99901.22;4962270;27;98414;-68
2024/02/25 03:16:27;;;;;;;;;;;;;;;10.27;50.97;99905.03;4995429;27;98589;-68
2024/02/25 03:18:55;;;;;;;;;;;;;;;10.26;50.74;99908.81;4958010;27;103407;-72
2024/02/25 03:21:21;;;;;;;;;;;;;;;10.25;50.70;99901.78;4959212;27;111716;-72
2024/02/25 03:23:46;;;;;;;;;;;;;;;10.24;50.82;99905.53;4946516;27;99645;-72
2024/02/25 03:26:16;;;;;;;;;;;;;;;10.23;51.16;99899.34;4946881;27;102134;-73
2024/02/25 03:28:43;;;;;;;;;;;;;;;10.21;51.30;99901.50;4985530;27;98253;-68
2024/02/25 03:31:10;;;;;;;;;;;;;;;10.21;51.01;99895.31;4967472;27;100088;-67
2024/02/25 03:33:36;;;;;;;;;;;;;;;10.19;50.93;99889.41;4979464;27;101341;-68
2024/02/25 03:36:03;;;;;;;;;;;;;;;10.18;50.90;99894.00;4974544;27;123333;-72
2024/02/25 03:38:29;;;;;;;;;;;;;;;10.17;51.11;99895.06;4962000;27;98753;-68
2024/02/25 03:40:55;;;;;;;;;;;;;;;10.17;50.92;99891.56;4949735;27;98024;-72
2024/02/25 03:43:22;;;;;;;;;;;;;;;10.17;50.85;99892.38;4964466;27;98131;-68
2024/02/25 03:45:48;;;;;;;;;;;;;;;10.16;50.97;99884.56;4980042;27;98191;-68
2024/02/25 03:48:14;;;;;;;;;;;;;;;10.15;51.31;99891.84;4977324;27;99150;-73
2024/02/25 03:50:40;;;;;;;;;;;;;;;10.14;50.90;99892.94;4969061;27;98016;-72
2024/02/25 03:53:06;;;;;;;;;;;;;;;10.15;50.82;99893.75;4976776;27;114836;-68
2024/02/25 03:55:32;;;;;;;;;;;;;;;10.15;51.39;99901.81;4961588;27;131720;-73
2024/02/25 03:57:59;;;;;;;;;;;;;;;10.14;51.14;99905.59;4948949;27;98102;-72
2024/02/25 04:00:25;;;;;;;;;;;;;;;10.13;51.15;99907.47;4965494;27;99505;-73
2024/02/25 04:02:51;;;;;;;;;;;;;;;10.12;51.07;99900.47;4964813;27;98803;-72
2024/02/25 04:05:17;;;;;;;;;;;;;;;10.14;51.13;99903.72;4962167;27;98260;-72
2024/02/25 04:07:47;;;;;;;;;;;;;;;10.13;50.77;99898.59;4959550;27;98131;-72
2024/02/25 04:10:13;;;;;;;;;;;;;;;10.11;51.08;99896.19;4981139;27;98136;-68
2024/02/25 04:12:39;;;;;;;;;;;;;;;10.11;50.85;99896.19;4963163;27;99693;-72
2024/02/25 04:15:06;;;;;;;;;;;;;;;10.11;50.88;99898.09;4965002;27;98702;-67
2024/02/25 04:17:33;;;;;;;;;;;;;;;10.11;51.37;99895.38;4964324;27;98100;-67
2024/02/25 04:20:00;;;;;;;;;;;;;;;10.11;51.22;99892.69;4965009;27;98448;-68
2024/02/25 04:22:26;;;;;;;;;;;;;;;10.10;50.73;99899.97;4954035;27;99784;-67
2024/02/25 04:24:52;;;;;;;;;;;;;;;10.10;50.94;99897.28;4970391;27;98124;-72
2024/02/25 04:27:18;;;;;;;;;;;;;;;10.09;51.41;99899.13;4950085;27;98256;-72
2024/02/25 04:29:45;;;;;;;;;;;;;;;10.09;50.83;99898.34;4964449;27;98544;-67
2024/02/25 04:32:11;;;;;;;;;;;;;;;10.09;50.91;99890.25;4965241;27;98119;-67
2024/02/25 04:34:37;;;;;;;;;;;;;;;10.09;51.00;99890.25;4970883;27;98149;-68
2024/02/25 04:37:04;;;;;;;;;;;;;;;10.09;51.03;99887.56;4967916;27;99729;-72
2024/02/25 04:39:30;;;;;;;;;;;;;;;10.08;51.03;99886.75;4967772;27;98186;-67
2024/02/25 04:41:56;;;;;;;;;;;;;;;10.09;51.17;99887.56;4950184;27;98299;-72
2024/02/25 04:44:23;;;;;;;;;;;;;;;10.09;50.76;99891.06;4951938;27;98390;-72
2024/02/25 04:46:49;;;;;;;;;;;;;;;10.08;50.80;99886.75;4967806;27;98232;-72
2024/02/25 04:49:16;;;;;;;;;;;;;;;10.07;51.13;99889.75;4979046;27;98061;-72
2024/02/25 04:51:43;;;;;;;;;;;;;;;10.07;51.44;99893.25;4968752;27;98937;-72
2024/02/25 04:54:10;;;;;;;;;;;;;;;10.07;50.77;99900.53;4968124;27;116444;-73
2024/02/25 04:56:39;;;;;;;;;;;;;;;10.06;50.73;99899.72;4982639;27;101140;-73
2024/02/25 04:59:05;;;;;;;;;;;;;;;10.07;51.26;99897.81;4967732;27;97961;-72
2024/02/25 05:01:31;;;;;;;;;;;;;;;10.07;50.61;99889.75;4985413;27;100235;-67
2024/02/25 05:03:57;;;;;;;;;;;;;;;10.07;50.73;99892.44;4948163;27;114665;-72
2024/02/25 05:06:23;;;;;;;;;;;;;;;10.05;51.26;99891.91;4982650;27;98193;-67
2024/02/25 05:08:49;;;;;;;;;;;;;;;10.06;51.03;99898.88;4965984;27;102922;-72
2024/02/25 05:11:16;;;;;;;;;;;;;;;10.05;51.19;99892.69;4965678;27;104747;-72
2024/02/25 05:13:43;;;;;;;;;;;;;;;10.05;50.61;99899.97;4967524;27;98036;-68
2024/02/25 05:16:09;;;;;;;;;;;;;;;10.02;51.14;99887.91;4980312;27;98740;-72
2024/02/25 05:18:35;;;;;;;;;;;;;;;10.03;50.84;99889.50;4946664;27;98347;-67
2024/02/25 05:21:02;;;;;;;;;;;;;;;10.02;51.51;99889.75;4965602;27;117469;-73
2024/02/25 05:23:28;;;;;;;;;;;;;;;10.01;50.63;99893.53;4967771;27;98404;-67
2024/02/25 05:25:54;;;;;;;;;;;;;;;10.00;50.99;99892.72;4972224;27;104599;-72
2024/02/25 05:28:21;;;;;;;;;;;;;;;10.00;50.79;99894.63;4969895;27;98062;-72
2024/02/25 05:30:47;;;;;;;;;;;;;;;9.98;51.21;99897.59;4968053;27;100097;-68
2024/02/25 05:33:13;;;;;;;;;;;;;;;9.99;51.06;99898.41;4966682;27;99066;-67
2024/02/25 05:35:39;;;;;;;;;;;;;;;9.97;51.01;99901.34;4945518;27;99228;-72
2024/02/25 05:38:06;;;;;;;;;;;;;;;9.96;50.80;99897.06;4952453;27;98451;-67
2024/02/25 05:40:32;;;;;;;;;;;;;;;9.96;50.85;99898.97;4945038;28;98438;-72
2024/02/25 05:42:58;;;;;;;;;;;;;;;9.95;51.23;99898.16;4981454;27;98141;-72
2024/02/25 05:45:24;;;;;;;;;;;;;;;9.95;51.08;99897.34;4967346;27;101160;-72
2024/02/25 05:47:50;;;;;;;;;;;;;;;9.94;51.44;99904.63;4965763;27;102012;-68
2024/02/25 05:50:16;;;;;;;;;;;;;;;9.93;50.64;99897.59;4980149;27;98275;-68
2024/02/25 05:52:42;;;;;;;;;;;;;;;9.93;51.05;99900.31;4967885;27;98172;-68
2024/02/25 05:55:09;;;;;;;;;;;;;;;9.93;51.09;99903.00;4949730;28;99854;-68
2024/02/25 05:57:35;;;;;;;;;;;;;;;9.92;50.58;99893.31;4962793;27;98532;-73
2024/02/25 06:00:01;;;;;;;;;;;;;;;9.93;51.15;99899.50;4969645;27;106619;-73
2024/02/25 06:02:27;;;;;;;;;;;;;;;9.91;51.18;99894.41;4979613;27;100675;-68
2024/02/25 06:04:53;;;;;;;;;;;;;;;9.91;51.25;99896.28;4958425;27;98070;-73
2024/02/25 06:07:23;;;;;;;;;;;;;;;9.90;50.78;99895.47;4973056;27;99398;-68
2024/02/25 06:09:49;;;;;;;;;;;;;;;9.90;50.90;99905.44;4956153;27;99776;-68
2024/02/25 06:12:15;;;;;;;;;;;;;;;9.90;51.19;99903.53;4989277;27;98445;-73
2024/02/25 06:14:41;;;;;;;;;;;;;;;9.90;51.16;99895.47;4993476;27;104409;-68
2024/02/25 06:17:07;;;;;;;;;;;;;;;9.92;51.45;99895.22;4976661;27;98479;-73
2024/02/25 06:19:35;;;;;;;;;;;;;;;9.94;50.40;99895.72;4980283;27;98330;-68
2024/02/25 06:22:01;;;;;;;;;;;;;;;9.96;51.30;99891.69;4978229;27;98410;-68
2024/02/25 06:24:27;;;;;;;;;;;;;;;9.99;50.64;99891.13;4995709;27;104876;-68
2024/02/25 06:26:53;;;;;;;;;;;;;;;10.03;50.79;99896.78;5001447;27;111824;-73
2024/02/25 06:29:19;;;;;;;;;;;;;;;10.07;51.20;99895.94;4943084;28;98806;-73
2024/02/25 06:31:46;;;;;;;;;;;;;;;10.11;50.53;99898.88;4961372;27;98579;-73
2024/02/25 06:34:12;;;;;;;;;;;;;;;10.17;50.53;99899.66;4972329;27;98225;-67
2024/02/25 06:36:38;;;;;;;;;;;;;;;10.22;50.35;99897.75;4978496;27;98504;-67
2024/02/25 06:39:04;;;;;;;;;;;;;;;10.29;50.78;99898.25;4994057;27;100393;-73
2024/02/25 06:41:30;;;;;;;;;;;;;;;10.36;50.33;99895.25;4977262;27;98122;-73
2024/02/25 06:43:57;;;;;;;;;;;;;;;10.46;50.91;99891.69;4975655;27;123110;-73
2024/02/25 06:46:23;;;;;;;;;;;;;;;10.56;50.40;99889.72;4985878;27;98958;-71
2024/02/25 06:48:49;;;;;;;;;;;;;;;10.69;50.59;99892.84;4979229;27;98191;-68
2024/02/25 06:51:23;;;;;;;;;;;;;;;10.81;50.13;99891.44;4970423;27;127860;-68
2024/02/25 06:53:49;;;;;;;;;;;;;;;10.96;50.13;99884.28;5009608;27;99010;-69
2024/02/25 06:56:15;;;;;;;;;;;;;;;11.11;50.24;99891.44;4976324;27;114085;-68
2024/02/25 06:58:42;;;;;;;;;;;;;;;11.24;50.29;99880.00;4980713;27;100327;-73
2024/02/25 07:01:08;;;;;;;;;;;;;;;11.37;50.23;99876.59;4980310;27;104464;-73
2024/02/25 07:03:34;;;;;;;;;;;;;;;11.49;49.94;99877.00;4987800;27;98648;-73
2024/02/25 07:06:00;;;;;;;;;;;;;;;11.60;49.66;99876.91;4975953;27;110520;-74
2024/02/25 07:08:26;;;;;;;;;;;;;;;11.70;49.96;99874.06;4984781;27;99152;-74
2024/02/25 07:10:52;;;;;;;;;;;;;;;11.81;49.91;99880.94;4976043;27;99639;-74
2024/02/25 07:13:18;;;;;;;;;;;;;;;11.92;49.92;99871.66;4967699;27;98395;-73
2024/02/25 07:15:44;;;;;;;;;;;;;;;12.03;49.86;99873.13;4997477;27;99136;-68
2024/02/25 07:18:10;;;;;;;;;;;;;;;12.18;49.66;99869.41;4967766;27;127519;-69
2024/02/25 07:20:36;;;;;;;;;;;;;;;12.36;49.75;99867.00;4993740;27;98485;-73
2024/02/25 07:23:02;;;;;;;;;;;;;;;12.57;49.59;99862.84;4977028;27;129435;-68
2024/02/25 07:25:28;;;;;;;;;;;;;;;12.73;49.41;99869.66;4987696;27;98379;-69
2024/02/25 07:27:54;;;;;;;;;;;;;;;12.89;49.65;99863.97;4987957;27;115270;-74
2024/02/25 07:30:20;;;;;;;;;;;;;;;13.07;49.29;99870.41;4973423;27;128784;-74
2024/02/25 07:32:46;;;;;;;;;;;;;;;13.26;49.43;99871.19;4970103;27;127185;-74
2024/02/25 07:35:13;;;;;;;;;;;;;;;13.49;48.98;99861.28;4967861;27;98162;-68
2024/02/25 07:37:40;;;;;;;;;;;;;;;13.82;49.16;99861.16;4975031;27;98419;-74
2024/02/25 07:40:10;;;;;;;;;;;;;;;13.89;49.14;99865.06;4977182;27;98041;-68
2024/02/25 07:42:37;;;;;;;;;;;;;;;13.97;49.16;99861.63;4957617;28;98270;-74
2024/02/25 07:45:04;;;;;;;;;;;;;;;13.89;49.36;99867.75;4977974;27;98531;-74
2024/02/25 07:47:31;;;;;;;;;;;;;;;13.90;49.19;99863.94;4990641;27;98534;-68
2024/02/25 07:49:59;;;;;;;;;;;;;;;13.91;49.67;99867.44;4973209;27;98393;-73
2024/02/25 07:52:26;;;;;;;;;;;;;;;13.90;49.28;99868.56;4984203;27;98052;-73
2024/02/25 07:54:54;;;;;;;;;;;;;;;14.21;49.20;99865.97;4981040;27;98290;-74
2024/02/25 07:57:20;;;;;;;;;;;;;;;14.76;48.34;99863.06;4989203;27;98798;-74
2024/02/25 07:59:47;;;;;;;;;;;;;;;15.13;48.23;99867.28;4978924;27;98524;-73
2024/02/25 08:02:14;;;;;;;;;;;;;;;15.55;47.91;99853.41;4970110;27;99183;-69
2024/02/25 08:04:41;;;;;;;;;;;;;;;16.10;47.57;99858.34;4965499;27;98597;-74
2024/02/25 08:07:07;;;;;;;;;;;;;;;16.59;47.39;99854.34;4978383;27;98136;-69
2024/02/25 08:09:34;;;;;;;;;;;;;;;17.21;47.00;99833.22;4975547;27;99264;-74
2024/02/25 08:12:01;;;;;;;;;;;;;;;17.69;46.94;99829.31;4980656;27;98260;-74
2024/02/25 08:14:28;;;;;;;;;;;;;;;18.21;46.73;99827.03;4973847;27;98918;-69
2024/02/25 08:16:55;;;;;;;;;;;;;;;18.42;46.83;99828.94;4977715;27;98539;-74
2024/02/25 08:19:21;;;;;;;;;;;;;;;18.20;47.39;99839.09;4964666;27;99046;-74
2024/02/25 08:21:49;;;;;;;;;;;;;;;18.01;47.75;99844.22;4975583;27;98216;-69
2024/02/25 08:24:17;;;;;;;;;;;;;;;17.82;47.94;99844.66;4972008;27;98397;-74
2024/02/25 08:26:44;;;;;;;;;;;;;;;17.64;48.21;99838.47;4979877;27;98983;-68
2024/02/25 08:29:11;;;;;;;;;;;;;;;17.52;48.41;99832.91;4999607;27;98425;-69
2024/02/25 08:31:38;;;;;;;;;;;;;;;17.34;48.59;99835.75;4976364;27;98433;-73
2024/02/25 08:34:04;;;;;;;;;;;;;;;17.15;48.98;99832.63;4978648;27;99562;-68
2024/02/25 08:36:31;;;;;;;;;;;;;;;16.97;49.07;99828.34;4966417;27;98614;-69
2024/02/25 08:38:58;;;;;;;;;;;;;;;16.80;49.19;99840.09;4992099;27;99345;-73
2024/02/25 08:41:25;;;;;;;;;;;;;;;16.66;49.30;99837.50;4962625;27;98446;-73
2024/02/25 08:43:51;;;;;;;;;;;;;;;16.52;49.49;99836.91;4999579;27;98452;-68
2024/02/25 08:46:18;;;;;;;;;;;;;;;16.41;49.52;99837.22;4977786;27;98332;-74
2024/02/25 08:48:45;;;;;;;;;;;;;;;16.35;49.38;99835.00;4992228;27;99997;-73
2024/02/25 08:51:11;;;;;;;;;;;;;;;16.32;49.35;99832.91;4979596;27;98587;-73
2024/02/25 08:53:38;;;;;;;;;;;;;;;16.33;49.34;99821.72;4997395;27;98214;-73
2024/02/25 08:56:04;;;;;;;;;;;;;;;16.50;49.17;99829.03;4990564;27;98172;-74
2024/02/25 08:58:31;;;;;;;;;;;;;;;16.72;48.97;99819.91;4973376;27;98384;-69
2024/02/25 09:00:58;;;;;;;;;;;;;;;16.75;48.96;99823.94;4972259;27;98102;-69
2024/02/25 09:03:25;;;;;;;;;;;;;;;16.79;48.77;99820.25;4958126;27;99014;-74
2024/02/25 09:05:51;;;;;;;;;;;;;;;16.76;49.02;99814.63;4977905;27;100181;-74
2024/02/25 09:08:21;;;;;;;;;;;;;;;16.66;49.25;99819.28;4988097;27;98081;-69
2024/02/25 09:10:50;;;;;;;;;;;;;;;16.54;49.39;99815.59;4975097;27;98141;-69
2024/02/25 09:13:17;;;;;;;;;;;;;;;16.42;49.68;99811.63;4977964;27;98385;-74
2024/02/25 09:15:43;;;;;;;;;;;;;;;16.33;49.78;99805.38;4977168;27;100599;-73
2024/02/25 09:18:10;;;;;;;;;;;;;;;16.23;49.67;99802.19;4978261;27;102762;-68
2024/02/25 09:20:40;;;;;;;;;;;;;;;16.09;49.69;99803.16;4982195;27;99016;-73
2024/02/25 09:23:07;;;;;;;;;;;;;;;15.98;50.08;99809.25;4975553;27;98493;-73
2024/02/25 09:25:35;;;;;;;;;;;;;;;15.86;49.92;99807.16;4958225;27;100243;-73
2024/02/25 09:28:03;;;;;;;;;;;;;;;15.79;50.15;99799.47;4980869;27;98535;-69
2024/02/25 09:30:30;;;;;;;;;;;;;;;15.80;49.79;99808.41;4988835;27;98781;-68
2024/02/25 09:32:57;;;;;;;;;;;;;;;15.85;49.67;99797.41;4995335;27;98280;-69
2024/02/25 09:35:23;;;;;;;;;;;;;;;16.00;49.56;99802.38;4973071;27;98444;-74
2024/02/25 09:37:51;;;;;;;;;;;;;;;16.18;49.36;99795.78;4974159;27;100381;-69
2024/02/25 09:40:18;;;;;;;;;;;;;;;16.50;49.04;99793.69;4956058;27;98363;-74
2024/02/25 09:42:48;;;;;;;;;;;;;;;16.87;48.67;99796.84;4977327;27;98343;-74
2024/02/25 09:45:23;;;;;;;;;;;;;;;17.09;48.74;99793.84;4960137;27;98429;-69
2024/02/25 09:47:51;;;;;;;;;;;;;;;17.33;48.45;99782.41;4979536;27;98738;-69
2024/02/25 09:50:18;;;;;;;;;;;;;;;17.48;48.61;99782.94;4969418;27;98857;-69
2024/02/25 09:52:48;;;;;;;;;;;;;;;17.40;48.79;99788.09;4991727;27;98042;-68
2024/02/25 09:55:15;;;;;;;;;;;;;;;17.36;48.89;99789.88;4997508;27;98761;-74
2024/02/25 09:57:41;;;;;;;;;;;;;;;17.39;48.91;99785.72;4997604;27;98386;-74
2024/02/25 10:00:09;;;;;;;;;;;;;;;18.26;47.98;99774.22;4974774;27;97922;-74
2024/02/25 10:02:37;;;;;;;;;;;;;;;20.54;45.54;99777.91;4987164;27;98256;-69
2024/02/25 10:05:04;;;;;;;;;;;;;;;24.97;41.56;99770.09;4992151;27;98479;-75
2024/02/25 10:07:31;;;;;;;;;;;;;;;28.20;39.48;99782.69;4986245;27;98369;-75
2024/02/25 10:09:57;;;;;;;;;;;;;;;31.04;38.08;99800.41;4975992;27;98113;-70
2024/02/25 10:12:26;;;;;;;;;;;;;;;33.07;37.84;99802.34;4989797;27;98392;-76
2024/02/25 10:14:54;;;;;;;;;;;;;;;34.80;37.48;99803.50;4974738;27;98084;-71
2024/02/25 10:17:23;;;;;;;;;;;;;;;36.35;37.20;99786.47;4984207;27;98221;-71
2024/02/25 10:19:56;;;;;;;;;;;;;;;37.12;37.37;99783.00;4989687;27;98365;-75
2024/02/25 10:22:24;;;;;;;;;;;;;;;39.66;36.20;99773.84;4984423;27;98009;-76
2024/02/25 10:24:53;;;;;;;;;;;;;;;41.39;35.75;99772.91;4979481;27;98778;-69
2024/02/25 10:27:22;;;;;;;;;;;;;;;42.34;35.67;99764.59;4989579;27;98258;-73
2024/02/25 10:29:51;;;;;;;;;;;;;;;42.88;35.76;99752.59;4988735;27;98393;-70
2024/02/25 10:32:26;;;;;;;;;;;;;;;43.61;35.92;99741.50;4973798;27;98112;-73
2024/02/25 10:34:53;;;;;;;;;;;;;;;44.82;35.32;99729.81;4980216;27;98268;-74
2024/02/25 10:37:26;;;;;;;;;;;;;;;45.84;34.95;99726.44;4972127;27;98650;-70
2024/02/25 10:39:59;;;;;;;;;;;;;;;46.44;34.87;99715.75;4979078;27;98137;-74
2024/02/25 10:42:27;;;;;;;;;;;;;;;47.03;34.99;99709.66;4985304;27;98528;-69
2024/02/25 10:44:59;;;;;;;;;;;;;;;47.69;34.90;99692.91;4979234;27;99289;-71
2024/02/25 10:47:31;;;;;;;;;;;;;;;48.36;34.78;99694.53;4984523;27;100579;-73
2024/02/25 10:49:58;;;;;;;;;;;;;;;49.05;34.40;99668.97;4996295;27;98499;-71
2024/02/25 10:52:27;;;;;;;;;;;;;;;49.39;34.20;99668.97;4973957;27;100545;-71
2024/02/25 10:54:58;;;;;;;;;;;;;;;49.48;34.38;99665.63;4980730;27;98397;-73
2024/02/25 10:57:25;;;;;;;;;;;;;;;49.59;35.00;99653.16;4991315;27;98464;-71
2024/02/25 10:59:52;;;;;;;;;;;;;;;49.65;34.97;99648.06;4983062;27;98528;-71
2024/02/25 11:02:20;;;;;;;;;;;;;;;49.43;35.02;99640.00;4954223;27;99281;-73
2024/02/25 11:04:47;;;;;;;;;;;;;;;49.45;35.39;99632.41;4995743;27;99076;-73
2024/02/25 11:07:15;;;;;;;;;;;;;;;49.13;35.56;99633.47;4973084;27;99693;-71
2024/02/25 11:09:44;;;;;;;;;;;;;;;48.43;36.06;99625.38;4974937;27;99873;-71
2024/02/25 11:12:14;;;;;;;;;;;;;;;47.39;37.11;99616.84;4980819;27;98646;-71
2024/02/25 11:14:48;;;;;;;;;;;;;;;46.48;37.88;99610.09;4994309;27;98672;-73
2024/02/25 11:17:26;;;;;;;;;;;;;;;45.58;38.39;99599.66;4978250;27;99386;-70
2024/02/25 11:20:03;;;;;;;;;;;;;;;44.76;38.77;99589.88;4977196;27;98077;-70
2024/02/25 11:22:46;;;;;;;;;;;;;;;44.10;39.53;99592.44;4985965;27;99577;-70
2024/02/25 11:25:27;;;;;;;;;;;;;;;43.50;39.98;99586.31;4974051;27;97954;-73
2024/02/25 11:28:09;;;;;;;;;;;;;;;42.92;40.19;99571.84;4997396;27;99780;-70
2024/02/25 11:30:39;;;;;;;;;;;;;;;42.36;40.74;99577.28;4986446;27;98549;-70
2024/02/25 11:33:23;;;;;;;;;;;;;;;41.81;40.87;99579.25;4991144;27;97948;-72
2024/02/25 11:35:51;;;;;;;;;;;;;;;41.26;41.48;99574.69;5004101;27;100199;-72
2024/02/25 11:38:28;;;;;;;;;;;;;;;40.77;41.77;99568.03;4953009;27;99899;-72
2024/02/25 11:40:58;;;;;;;;;;;;;;;40.25;42.01;99565.09;5002613;27;100117;-70
2024/02/25 11:43:28;;;;;;;;;;;;;;;39.72;42.33;99558.44;4975271;27;98460;-69
2024/02/25 11:45:56;;;;;;;;;;;;;;;39.22;42.39;99558.38;5009332;27;98103;-70
2024/02/25 11:48:23;;;;;;;;;;;;;;;38.71;43.18;99553.03;4988805;27;98341;-72
2024/02/25 11:50:49;;;;;;;;;;;;;;;38.15;43.16;99551.88;4977322;27;98188;-72
2024/02/25 11:53:16;;;;;;;;;;;;;;;37.63;43.23;99548.41;4982831;27;98068;-72
2024/02/25 11:55:43;;;;;;;;;;;;;;;37.08;44.23;99541.66;4992905;27;98153;-72
2024/02/25 11:58:10;;;;;;;;;;;;;;;36.57;44.41;99541.53;4981904;27;98230;-69
2024/02/25 12:00:37;;;;;;;;;;;;;;;36.13;44.80;99536.19;4979917;27;98672;-72
2024/02/25 12:03:08;;;;;;;;;;;;;;;35.67;45.05;99536.03;4980717;27;97992;-69
2024/02/25 12:05:35;;;;;;;;;;;;;;;35.13;45.27;99540.09;4977310;27;102009;-72
2024/02/25 12:08:04;;;;;;;;;;;;;;;34.66;45.22;99532.59;4978969;27;97871;-69
2024/02/25 12:10:30;;;;;;;;;;;;;;;34.22;45.79;99540.09;4975007;27;98270;-69
2024/02/25 12:12:58;;;;;;;;;;;;;;;33.83;45.71;99539.34;4962956;27;98178;-69
2024/02/25 12:15:28;;;;;;;;;;;;;;;33.15;46.13;99544.19;4984776;27;99652;-69
2024/02/25 12:17:56;;;;;;;;;;;;;;;32.62;46.74;99543.63;4977054;27;98352;-69
2024/02/25 12:20:22;;;;;;;;;;;;;;;32.40;46.20;99532.28;4983577;27;98194;-72
2024/02/25 12:22:53;;;;;;;;;;;;;;;31.89;46.47;99532.72;4975878;27;98199;-72
2024/02/25 12:25:20;;;;;;;;;;;;;;;31.39;47.06;99533.84;4959070;27;99320;-72
2024/02/25 12:27:46;;;;;;;;;;;;;;;31.01;47.16;99527.88;4991882;27;98829;-68
2024/02/25 12:30:13;;;;;;;;;;;;;;;30.62;47.14;99528.63;4969721;27;99789;-68
2024/02/25 12:32:41;;;;;;;;;;;;;;;30.15;47.53;99523.84;4957238;27;98368;-71
2024/02/25 12:35:08;;;;;;;;;;;;;;;29.82;47.47;99523.56;4990575;27;101239;-71
2024/02/25 12:37:35;;;;;;;;;;;;;;;29.50;47.41;99520.47;4950885;27;98548;-75
2024/02/25 12:40:05;;;;;;;;;;;;;;;28.96;47.78;99515.59;4974849;27;98381;-74
2024/02/25 12:42:32;;;;;;;;;;;;;;;28.43;47.98;99524.50;4986454;27;98273;-71
2024/02/25 12:44:59;;;;;;;;;;;;;;;27.91;48.33;99528.09;4963126;27;99566;-74